Decoded Metar for KCMX (HANCOCK in MI, USA) (IATA:CMX) | Meteo·Mobile Aviation Weather
aviador You're here:

KCMX Decoded Metar

HANCOCK in MI, USA
Report Time2018-09-18 20:53:00
UTC Time2018-09-18 21:54:26
Flight Rules mvfr MVFR
WindVRB at 04 kt
Visibility9999 m
Phenomena:N/A
Clouds:Overcast 016 Hf
Expected CloudBase > 2,000 ft AGL from Temp-Dew spread
Ceiling1,600 ft
Temp12°C (ISA -1)
Dew Point07°C (72% RH)
AAT9.9°C
QNH1017 hPa
Density Alt971 ft
Elevation1,070 ft
Report Wrong Elevation
Raw Report
KCMX 182053Z AUTO VRB04KT 10SM OVC016 12/07 A3003 RMK AO2 SLP175
T01220067 58005=

Extra information for KCMX:More info

Metar Taf Metar & Taf Last 4 Metars F.Rules Stats Wind Profile Meteogram Temp Stats Airport Information Weather charts Add Link Nearby VenuesMetar ALERT Operation Metar Decoded Social comments

AIRNAV info for KCMX